FLI504 BIKF-EKVG
Flight info
| Callsign | FLI504 |
|---|---|
| Flight time | 1h 9m |
| Altitude | 37000 |
| Route | OSKUM3C OSKUM DCT MAGNI |
| Aircraft | A320/M-SDE3FGHIRWY/LB1 |
Departure
| Time | 2026-04-27 11:58 |
|---|---|
| Airport | Keflavik International Airport (BIKF) |
Arrival
| Time | 2026-04-27 13:07 |
|---|---|
| Airport | Vágar Airport (EKVG) |
| Time | Latitude | Longitude | Altitude | Speed | Heading |
|---|---|---|---|---|---|
| 2026-04-27 11:35 | 63.99403 | -22.61717 | 141 ft | 0 kts | 180° |
| 2026-04-27 11:51 | 63.99425 | -22.61716 | 143 ft | 4 kts | 179° |
| 2026-04-27 11:51 | 63.99448 | -22.61720 | 141 ft | 3 kts | 171° |
| 2026-04-27 11:51 | 63.99470 | -22.61798 | 141 ft | 1 kts | 97° |
| 2026-04-27 11:52 | 63.99469 | -22.61765 | 141 ft | 4 kts | 92° |
| 2026-04-27 11:52 | 63.99469 | -22.61704 | 141 ft | 4 kts | 88° |
| 2026-04-27 11:52 | 63.99470 | -22.61642 | 141 ft | 4 kts | 88° |
| 2026-04-27 11:52 | 63.99471 | -22.61581 | 141 ft | 4 kts | 89° |
| 2026-04-27 11:53 | 63.99471 | -22.61540 | 141 ft | 0 kts | 90° |
| 2026-04-27 11:54 | 63.99463 | -22.61471 | 141 ft | 11 kts | 121° |
| 2026-04-27 11:54 | 63.99365 | -22.61430 | 143 ft | 18 kts | 179° |
| 2026-04-27 11:55 | 63.99228 | -22.61427 | 149 ft | 20 kts | 177° |
| 2026-04-27 11:55 | 63.99177 | -22.61220 | 155 ft | 15 kts | 94° |
| 2026-04-27 11:55 | 63.99174 | -22.60962 | 161 ft | 18 kts | 90° |
| 2026-04-27 11:55 | 63.99174 | -22.60662 | 170 ft | 18 kts | 90° |
| 2026-04-27 11:56 | 63.99100 | -22.60537 | 174 ft | 13 kts | 185° |
| 2026-04-27 11:56 | 63.99056 | -22.60539 | 174 ft | 0 kts | 182° |
| 2026-04-27 11:57 | 63.99039 | -22.60540 | 173 ft | 11 kts | 181° |
| 2026-04-27 11:57 | 63.98688 | -22.60539 | 173 ft | 87 kts | 180° |
| 2026-04-27 11:57 | 63.98184 | -22.60536 | 172 ft | 127 kts | 180° |
| 2026-04-27 11:57 | 63.96882 | -22.60573 | 756 ft | 147 kts | 177° |
| 2026-04-27 11:58 | 63.95784 | -22.60507 | 1253 ft | 169 kts | 170° |
| 2026-04-27 11:58 | 63.94753 | -22.58982 | 1696 ft | 199 kts | 131° |
| 2026-04-27 11:58 | 63.94054 | -22.55974 | 2213 ft | 230 kts | 119° |
| 2026-04-27 11:58 | 63.93460 | -22.52459 | 3060 ft | 244 kts | 116° |
| 2026-04-27 11:59 | 63.93074 | -22.50034 | 3740 ft | 248 kts | 116° |
| 2026-04-27 11:59 | 63.92469 | -22.46315 | 4767 ft | 254 kts | 118° |
| 2026-04-27 11:59 | 63.91819 | -22.42516 | 5640 ft | 262 kts | 120° |
| 2026-04-27 11:59 | 63.91118 | -22.38630 | 6409 ft | 269 kts | 122° |
| 2026-04-27 12:00 | 63.90373 | -22.34658 | 7185 ft | 276 kts | 123° |
| 2026-04-27 12:00 | 63.89597 | -22.30614 | 7994 ft | 283 kts | 123° |
| 2026-04-27 12:00 | 63.88791 | -22.26460 | 8768 ft | 291 kts | 123° |
| 2026-04-27 12:00 | 63.87963 | -22.22222 | 9590 ft | 296 kts | 123° |
| 2026-04-27 12:01 | 63.87108 | -22.17883 | 10194 ft | 311 kts | 123° |
| 2026-04-27 12:01 | 63.86182 | -22.13257 | 10560 ft | 331 kts | 123° |
| 2026-04-27 12:01 | 63.85222 | -22.08427 | 11251 ft | 339 kts | 122° |
| 2026-04-27 12:01 | 63.84277 | -22.03563 | 12018 ft | 345 kts | 120° |
| 2026-04-27 12:02 | 63.83596 | -21.98234 | 12813 ft | 360 kts | 108° |
| 2026-04-27 12:02 | 63.83275 | -21.92537 | 13617 ft | 367 kts | 104° |
| 2026-04-27 12:02 | 63.82967 | -21.86770 | 14330 ft | 371 kts | 104° |
| 2026-04-27 12:02 | 63.82644 | -21.80948 | 15031 ft | 375 kts | 104° |
| 2026-04-27 12:03 | 63.82310 | -21.75056 | 15726 ft | 379 kts | 104° |
| 2026-04-27 12:03 | 63.81970 | -21.69092 | 16411 ft | 383 kts | 104° |
| 2026-04-27 12:03 | 63.81624 | -21.63068 | 17107 ft | 388 kts | 105° |
| 2026-04-27 12:03 | 63.81270 | -21.56984 | 17771 ft | 392 kts | 105° |
| 2026-04-27 12:04 | 63.80908 | -21.50819 | 18402 ft | 396 kts | 105° |
| 2026-04-27 12:04 | 63.80544 | -21.44607 | 18974 ft | 400 kts | 104° |
| 2026-04-27 12:04 | 63.80176 | -21.38321 | 19566 ft | 404 kts | 104° |
| 2026-04-27 12:04 | 63.79808 | -21.32065 | 20154 ft | 408 kts | 104° |
| 2026-04-27 12:05 | 63.79428 | -21.25670 | 20768 ft | 412 kts | 104° |
| 2026-04-27 12:05 | 63.79041 | -21.19210 | 21349 ft | 416 kts | 104° |
| 2026-04-27 12:05 | 63.78644 | -21.12702 | 21929 ft | 420 kts | 104° |
| 2026-04-27 12:05 | 63.78239 | -21.06138 | 22484 ft | 423 kts | 104° |
| 2026-04-27 12:06 | 63.77758 | -20.99566 | 23027 ft | 423 kts | 110° |
| 2026-04-27 12:06 | 63.77017 | -20.93108 | 23500 ft | 426 kts | 112° |
| 2026-04-27 12:06 | 63.76250 | -20.86594 | 23905 ft | 431 kts | 112° |
| 2026-04-27 12:06 | 63.75475 | -20.80032 | 24343 ft | 434 kts | 112° |
| 2026-04-27 12:07 | 63.74694 | -20.73415 | 24801 ft | 437 kts | 112° |
| 2026-04-27 12:07 | 63.73906 | -20.66756 | 25266 ft | 440 kts | 112° |
| 2026-04-27 12:07 | 63.73110 | -20.60059 | 25720 ft | 443 kts | 112° |
| 2026-04-27 12:07 | 63.72304 | -20.53337 | 26148 ft | 445 kts | 112° |
| 2026-04-27 12:08 | 63.71488 | -20.46555 | 26496 ft | 450 kts | 111° |
| 2026-04-27 12:08 | 63.70850 | -20.39574 | 26868 ft | 458 kts | 106° |
| 2026-04-27 12:08 | 63.70312 | -20.32456 | 27258 ft | 461 kts | 106° |
| 2026-04-27 12:08 | 63.69774 | -20.25401 | 27639 ft | 463 kts | 107° |
| 2026-04-27 12:09 | 63.68838 | -20.18545 | 28026 ft | 453 kts | 122° |
| 2026-04-27 12:09 | 63.67265 | -20.12511 | 28420 ft | 444 kts | 132° |
| 2026-04-27 12:09 | 63.65736 | -20.06348 | 28839 ft | 460 kts | 119° |
| 2026-04-27 12:09 | 63.64877 | -19.99298 | 29221 ft | 474 kts | 107° |
| 2026-04-27 12:10 | 63.64284 | -19.91972 | 29596 ft | 477 kts | 106° |
| 2026-04-27 12:10 | 63.63712 | -19.84606 | 29967 ft | 480 kts | 106° |
| 2026-04-27 12:10 | 63.63153 | -19.77264 | 30281 ft | 483 kts | 106° |
| 2026-04-27 12:10 | 63.62583 | -19.69791 | 30581 ft | 485 kts | 106° |
| 2026-04-27 12:11 | 63.62007 | -19.62313 | 30880 ft | 486 kts | 105° |
| 2026-04-27 12:11 | 63.61421 | -19.54782 | 31161 ft | 488 kts | 105° |
| 2026-04-27 12:11 | 63.60827 | -19.47264 | 31439 ft | 490 kts | 105° |
| 2026-04-27 12:11 | 63.60223 | -19.39712 | 31767 ft | 490 kts | 105° |
| 2026-04-27 12:12 | 63.59612 | -19.32176 | 32164 ft | 489 kts | 105° |
| 2026-04-27 12:12 | 63.58997 | -19.24672 | 32576 ft | 488 kts | 106° |
| 2026-04-27 12:12 | 63.58376 | -19.17197 | 32986 ft | 487 kts | 106° |
| 2026-04-27 12:12 | 63.57762 | -19.09826 | 33390 ft | 486 kts | 106° |
| 2026-04-27 12:13 | 63.57138 | -19.02381 | 33775 ft | 485 kts | 106° |
| 2026-04-27 12:13 | 63.56511 | -18.94949 | 34137 ft | 484 kts | 106° |
| 2026-04-27 12:13 | 63.55884 | -18.87540 | 34436 ft | 484 kts | 106° |
| 2026-04-27 12:13 | 63.55258 | -18.80130 | 34764 ft | 483 kts | 106° |
| 2026-04-27 12:14 | 63.54631 | -18.72743 | 35068 ft | 482 kts | 105° |
| 2026-04-27 12:14 | 63.53998 | -18.65373 | 35379 ft | 481 kts | 105° |
| 2026-04-27 12:14 | 63.53358 | -18.58025 | 35665 ft | 480 kts | 105° |
| 2026-04-27 12:14 | 63.52718 | -18.50692 | 35965 ft | 479 kts | 105° |
| 2026-04-27 12:15 | 63.52075 | -18.43374 | 36243 ft | 478 kts | 105° |
| 2026-04-27 12:15 | 63.51428 | -18.36050 | 36514 ft | 478 kts | 105° |
| 2026-04-27 12:15 | 63.50776 | -18.28739 | 36764 ft | 477 kts | 105° |
| 2026-04-27 12:15 | 63.50124 | -18.21456 | 36999 ft | 477 kts | 105° |
| 2026-04-27 12:16 | 63.49471 | -18.14184 | 37063 ft | 475 kts | 105° |
| 2026-04-27 12:16 | 63.48166 | -17.99754 | 37072 ft | 472 kts | 105° |
| 2026-04-27 12:17 | 63.46842 | -17.85368 | 37073 ft | 473 kts | 105° |
| 2026-04-27 12:17 | 63.45490 | -17.70931 | 37078 ft | 475 kts | 105° |
| 2026-04-27 12:18 | 63.44142 | -17.56583 | 37074 ft | 475 kts | 105° |
| 2026-04-27 12:18 | 63.42773 | -17.42130 | 37079 ft | 475 kts | 106° |
| 2026-04-27 12:19 | 63.41381 | -17.27679 | 37099 ft | 475 kts | 106° |
| 2026-04-27 12:19 | 63.39975 | -17.13258 | 37102 ft | 475 kts | 106° |
| 2026-04-27 12:20 | 63.38551 | -16.98867 | 37091 ft | 475 kts | 105° |
| 2026-04-27 12:20 | 63.37117 | -16.84473 | 37087 ft | 475 kts | 105° |
| 2026-04-27 12:21 | 63.35675 | -16.70095 | 37077 ft | 475 kts | 105° |
| 2026-04-27 12:21 | 63.34226 | -16.55809 | 37094 ft | 475 kts | 105° |
| 2026-04-27 12:22 | 63.32750 | -16.41474 | 37096 ft | 475 kts | 105° |
| 2026-04-27 12:22 | 63.31258 | -16.27137 | 37105 ft | 475 kts | 106° |
| 2026-04-27 12:23 | 63.29757 | -16.12834 | 37114 ft | 475 kts | 106° |
| 2026-04-27 12:23 | 63.28232 | -15.98546 | 37126 ft | 468 kts | 106° |
| 2026-04-27 12:23 | 63.27493 | -15.91625 | 37126 ft | 454 kts | 106° |
| 2026-04-27 12:24 | 63.26767 | -15.84856 | 37128 ft | 448 kts | 107° |
| 2026-04-27 12:24 | 63.25321 | -15.71484 | 37130 ft | 444 kts | 107° |
| 2026-04-27 12:25 | 63.23867 | -15.58144 | 37139 ft | 444 kts | 107° |
| 2026-04-27 12:25 | 63.22400 | -15.44858 | 37138 ft | 443 kts | 107° |
| 2026-04-27 12:26 | 63.20924 | -15.31679 | 37113 ft | 443 kts | 106° |
| 2026-04-27 12:26 | 63.19423 | -15.18394 | 37122 ft | 444 kts | 106° |
| 2026-04-27 12:27 | 63.17912 | -15.05135 | 37131 ft | 444 kts | 106° |
| 2026-04-27 12:27 | 63.16388 | -14.91847 | 37144 ft | 444 kts | 106° |
| 2026-04-27 12:28 | 63.14869 | -14.78601 | 37147 ft | 444 kts | 106° |
| 2026-04-27 12:28 | 63.13330 | -14.65361 | 37149 ft | 444 kts | 106° |
| 2026-04-27 12:29 | 63.11773 | -14.52144 | 37164 ft | 444 kts | 107° |
| 2026-04-27 12:29 | 63.10204 | -14.39030 | 37165 ft | 445 kts | 106° |
| 2026-04-27 12:30 | 63.08619 | -14.25827 | 37172 ft | 445 kts | 106° |
| 2026-04-27 12:30 | 63.07026 | -14.12624 | 37172 ft | 445 kts | 106° |
| 2026-04-27 12:31 | 63.05414 | -13.99423 | 37170 ft | 445 kts | 106° |
| 2026-04-27 12:31 | 63.03790 | -13.86230 | 37172 ft | 445 kts | 106° |
| 2026-04-27 12:32 | 63.02159 | -13.73060 | 37182 ft | 445 kts | 106° |
| 2026-04-27 12:32 | 63.00518 | -13.59924 | 37199 ft | 445 kts | 105° |
| 2026-04-27 12:33 | 62.98868 | -13.46884 | 37197 ft | 445 kts | 105° |
| 2026-04-27 12:33 | 62.97193 | -13.33774 | 37201 ft | 445 kts | 105° |
| 2026-04-27 12:34 | 62.95480 | -13.20473 | 37215 ft | 458 kts | 106° |
| 2026-04-27 12:34 | 62.93729 | -13.06913 | 37216 ft | 471 kts | 106° |
| 2026-04-27 12:35 | 62.91913 | -12.93006 | 37225 ft | 475 kts | 106° |
| 2026-04-27 12:35 | 62.90078 | -12.79064 | 37238 ft | 476 kts | 106° |
| 2026-04-27 12:36 | 62.88223 | -12.65109 | 37231 ft | 477 kts | 105° |
| 2026-04-27 12:36 | 62.86348 | -12.51150 | 37220 ft | 477 kts | 105° |
| 2026-04-27 12:37 | 62.84462 | -12.37242 | 37241 ft | 476 kts | 105° |
| 2026-04-27 12:37 | 62.82562 | -12.23355 | 37256 ft | 476 kts | 106° |
| 2026-04-27 12:38 | 62.80653 | -12.09504 | 37261 ft | 475 kts | 105° |
| 2026-04-27 12:38 | 62.78757 | -11.95740 | 37283 ft | 475 kts | 105° |
| 2026-04-27 12:39 | 62.76820 | -11.81932 | 37269 ft | 476 kts | 106° |
| 2026-04-27 12:39 | 62.74864 | -11.68123 | 37264 ft | 476 kts | 105° |
| 2026-04-27 12:40 | 62.72910 | -11.54323 | 37266 ft | 476 kts | 106° |
| 2026-04-27 12:40 | 62.70938 | -11.40550 | 37262 ft | 476 kts | 106° |
| 2026-04-27 12:41 | 62.68945 | -11.26784 | 37271 ft | 476 kts | 106° |
| 2026-04-27 12:41 | 62.66936 | -11.13043 | 37277 ft | 476 kts | 105° |
| 2026-04-27 12:42 | 62.64918 | -10.99324 | 37286 ft | 476 kts | 105° |
| 2026-04-27 12:42 | 62.62883 | -10.85625 | 37287 ft | 476 kts | 106° |
| 2026-04-27 12:43 | 62.60851 | -10.72032 | 37287 ft | 476 kts | 106° |
| 2026-04-27 12:43 | 62.58792 | -10.58360 | 37297 ft | 476 kts | 106° |
| 2026-04-27 12:44 | 62.56728 | -10.44705 | 37299 ft | 476 kts | 106° |
| 2026-04-27 12:44 | 62.54647 | -10.31079 | 37325 ft | 476 kts | 106° |
| 2026-04-27 12:45 | 62.52552 | -10.17447 | 37293 ft | 477 kts | 106° |
| 2026-04-27 12:45 | 62.50430 | -10.03797 | 37290 ft | 478 kts | 106° |
| 2026-04-27 12:46 | 62.48283 | -9.90151 | 37298 ft | 479 kts | 106° |
| 2026-04-27 12:46 | 62.46499 | -9.78818 | 37293 ft | 479 kts | 106° |
| 2026-04-27 12:46 | 62.45423 | -9.71990 | 37101 ft | 480 kts | 106° |
| 2026-04-27 12:47 | 62.44339 | -9.65152 | 36269 ft | 479 kts | 106° |
| 2026-04-27 12:47 | 62.43255 | -9.58365 | 35026 ft | 480 kts | 107° |
| 2026-04-27 12:47 | 62.42160 | -9.51514 | 33707 ft | 485 kts | 106° |
| 2026-04-27 12:47 | 62.40697 | -9.42424 | 32226 ft | 480 kts | 107° |
| 2026-04-27 12:48 | 62.39956 | -9.37856 | 31582 ft | 476 kts | 107° |
| 2026-04-27 12:48 | 62.38867 | -9.31176 | 30685 ft | 468 kts | 107° |
| 2026-04-27 12:48 | 62.37796 | -9.24611 | 29727 ft | 461 kts | 107° |
| 2026-04-27 12:48 | 62.36741 | -9.18154 | 28777 ft | 453 kts | 107° |
| 2026-04-27 12:49 | 62.35702 | -9.11822 | 27865 ft | 445 kts | 107° |
| 2026-04-27 12:49 | 62.34692 | -9.05673 | 27051 ft | 437 kts | 107° |
| 2026-04-27 12:49 | 62.33692 | -8.99599 | 26519 ft | 422 kts | 108° |
| 2026-04-27 12:49 | 62.32719 | -8.93719 | 26047 ft | 415 kts | 108° |
| 2026-04-27 12:50 | 62.31749 | -8.87874 | 25530 ft | 415 kts | 108° |
| 2026-04-27 12:50 | 62.30782 | -8.82041 | 25010 ft | 414 kts | 108° |
| 2026-04-27 12:50 | 62.29814 | -8.76219 | 24483 ft | 413 kts | 108° |
| 2026-04-27 12:50 | 62.28842 | -8.70400 | 23943 ft | 413 kts | 108° |
| 2026-04-27 12:51 | 62.27873 | -8.64628 | 23451 ft | 409 kts | 108° |
| 2026-04-27 12:51 | 62.26908 | -8.58894 | 22973 ft | 405 kts | 108° |
| 2026-04-27 12:51 | 62.25945 | -8.53223 | 22350 ft | 406 kts | 108° |
| 2026-04-27 12:51 | 62.24984 | -8.47592 | 22020 ft | 395 kts | 108° |
| 2026-04-27 12:52 | 62.24051 | -8.42106 | 21293 ft | 387 kts | 108° |
| 2026-04-27 12:52 | 62.23136 | -8.36720 | 20832 ft | 383 kts | 108° |
| 2026-04-27 12:52 | 62.22223 | -8.31354 | 20344 ft | 382 kts | 108° |
| 2026-04-27 12:52 | 62.21308 | -8.26018 | 19876 ft | 381 kts | 109° |
| 2026-04-27 12:53 | 62.19484 | -8.15455 | 18929 ft | 379 kts | 109° |
| 2026-04-27 12:53 | 62.18567 | -8.10172 | 18491 ft | 377 kts | 109° |
| 2026-04-27 12:53 | 62.17657 | -8.04917 | 17991 ft | 376 kts | 109° |
| 2026-04-27 12:54 | 62.16758 | -7.99721 | 17573 ft | 372 kts | 109° |
| 2026-04-27 12:54 | 62.15859 | -7.94556 | 17200 ft | 367 kts | 110° |
| 2026-04-27 12:54 | 62.14962 | -7.89437 | 16728 ft | 366 kts | 110° |
| 2026-04-27 12:54 | 62.14069 | -7.84371 | 16392 ft | 360 kts | 110° |
| 2026-04-27 12:55 | 62.13164 | -7.79441 | 15774 ft | 351 kts | 115° |
| 2026-04-27 12:55 | 62.12105 | -7.74865 | 15406 ft | 337 kts | 116° |
| 2026-04-27 12:55 | 62.11025 | -7.70437 | 15039 ft | 336 kts | 120° |
| 2026-04-27 12:55 | 62.09765 | -7.66233 | 14661 ft | 335 kts | 126° |
| 2026-04-27 12:56 | 62.08337 | -7.62313 | 14286 ft | 334 kts | 131° |
| 2026-04-27 12:56 | 62.06795 | -7.58605 | 13885 ft | 333 kts | 133° |
| 2026-04-27 12:56 | 62.05274 | -7.54991 | 13501 ft | 331 kts | 133° |
| 2026-04-27 12:56 | 62.03739 | -7.51357 | 13124 ft | 328 kts | 133° |
| 2026-04-27 12:57 | 62.02214 | -7.47755 | 12740 ft | 326 kts | 133° |
| 2026-04-27 12:57 | 62.00698 | -7.44185 | 12365 ft | 324 kts | 133° |
| 2026-04-27 12:57 | 61.99190 | -7.40649 | 11976 ft | 322 kts | 133° |
| 2026-04-27 12:57 | 61.97692 | -7.37126 | 11592 ft | 320 kts | 133° |
| 2026-04-27 12:58 | 61.96207 | -7.33629 | 11189 ft | 318 kts | 133° |
| 2026-04-27 12:58 | 61.94730 | -7.30152 | 10802 ft | 316 kts | 133° |
| 2026-04-27 12:58 | 61.93258 | -7.26692 | 10399 ft | 315 kts | 133° |
| 2026-04-27 12:58 | 61.91800 | -7.23279 | 10157 ft | 307 kts | 134° |
| 2026-04-27 12:59 | 61.90392 | -7.19989 | 9611 ft | 298 kts | 134° |
| 2026-04-27 12:59 | 61.89025 | -7.16796 | 9168 ft | 286 kts | 134° |
| 2026-04-27 12:59 | 61.87718 | -7.13746 | 8763 ft | 273 kts | 133° |
| 2026-04-27 12:59 | 61.86692 | -7.10380 | 8031 ft | 276 kts | 111° |
| 2026-04-27 13:00 | 61.86385 | -7.06383 | 7300 ft | 277 kts | 86° |
| 2026-04-27 13:00 | 61.86885 | -7.02467 | 6557 ft | 277 kts | 60° |
| 2026-04-27 13:00 | 61.88074 | -6.99379 | 5813 ft | 274 kts | 36° |
| 2026-04-27 13:00 | 61.89644 | -6.97243 | 5328 ft | 262 kts | 29° |
| 2026-04-27 13:01 | 61.91155 | -6.95266 | 4996 ft | 248 kts | 30° |
| 2026-04-27 13:01 | 61.92613 | -6.93510 | 4690 ft | 233 kts | 19° |
| 2026-04-27 13:01 | 61.94105 | -6.92719 | 4420 ft | 210 kts | 1° |
| 2026-04-27 13:01 | 61.95502 | -6.92858 | 4203 ft | 197 kts | 345° |
| 2026-04-27 13:02 | 61.96768 | -6.93751 | 4073 ft | 182 kts | 330° |
| 2026-04-27 13:02 | 61.97765 | -6.95107 | 4000 ft | 157 kts | 316° |
| 2026-04-27 13:02 | 61.98467 | -6.96601 | 3998 ft | 137 kts | 305° |
| 2026-04-27 13:02 | 61.98990 | -6.98274 | 3814 ft | 135 kts | 294° |
| 2026-04-27 13:03 | 61.99432 | -7.00021 | 3545 ft | 133 kts | 294° |
| 2026-04-27 13:03 | 61.99870 | -7.01759 | 3302 ft | 133 kts | 294° |
| 2026-04-27 13:03 | 62.00305 | -7.03491 | 3082 ft | 132 kts | 294° |
| 2026-04-27 13:03 | 62.00740 | -7.05219 | 2867 ft | 132 kts | 294° |
| 2026-04-27 13:04 | 62.01172 | -7.06941 | 2653 ft | 132 kts | 294° |
| 2026-04-27 13:04 | 62.01605 | -7.08665 | 2440 ft | 132 kts | 294° |
| 2026-04-27 13:04 | 62.02036 | -7.10386 | 2226 ft | 132 kts | 294° |
| 2026-04-27 13:04 | 62.02467 | -7.12104 | 2018 ft | 132 kts | 294° |
| 2026-04-27 13:05 | 62.02897 | -7.13824 | 1794 ft | 131 kts | 294° |
| 2026-04-27 13:05 | 62.03326 | -7.15539 | 1583 ft | 131 kts | 294° |
| 2026-04-27 13:05 | 62.03754 | -7.17251 | 1380 ft | 131 kts | 294° |
| 2026-04-27 13:05 | 62.04185 | -7.18975 | 1166 ft | 133 kts | 294° |
| 2026-04-27 13:06 | 62.04623 | -7.20735 | 941 ft | 136 kts | 295° |
| 2026-04-27 13:06 | 62.05069 | -7.22530 | 729 ft | 138 kts | 296° |
| 2026-04-27 13:06 | 62.05524 | -7.24360 | 496 ft | 140 kts | 296° |
| 2026-04-27 13:06 | 62.05979 | -7.26189 | 270 ft | 139 kts | 296° |
| 2026-04-27 13:07 | 62.06350 | -7.27696 | 295 ft | 76 kts | 297° |
| 2026-04-27 13:07 | 62.06469 | -7.28132 | 291 ft | 10 kts | 346° |
| 2026-04-27 13:07 | 62.06543 | -7.28112 | 287 ft | 11 kts | 16° |
| 2026-04-27 13:07 | 62.06563 | -7.28102 | 288 ft | 0 kts | 12° |
| 2026-04-27 13:08 | 62.06605 | -7.28090 | 291 ft | 10 kts | 1° |
| 2026-04-27 13:08 | 62.06666 | -7.28113 | 294 ft | 9 kts | 339° |
| 2026-04-27 13:08 | 62.06719 | -7.28149 | 293 ft | 7 kts | 11° |
| 2026-04-27 13:09 | 62.06730 | -7.28120 | 293 ft | 0 kts | 67° |